createdAt,value
2019-02-05T00:00:01.593Z,17.73
2019-02-05T00:01:01.657Z,17.71
2019-02-05T00:02:02.016Z,17.73
2019-02-05T00:03:01.954Z,17.71
2019-02-05T00:04:01.918Z,17.7
2019-02-05T00:05:04.013Z,17.71
2019-02-05T00:06:01.570Z,17.71
2019-02-05T00:07:02.092Z,17.71
2019-02-05T00:08:01.782Z,17.68
2019-02-05T00:09:01.898Z,17.7
2019-02-05T00:10:02.064Z,17.7
2019-02-05T00:11:01.582Z,17.68
2019-02-05T00:12:02.025Z,17.66
2019-02-05T00:13:04.583Z,17.66
2019-02-05T00:14:01.722Z,17.64
2019-02-05T00:15:01.609Z,17.66
2019-02-05T00:16:01.918Z,17.67
2019-02-05T00:17:01.542Z,17.67
2019-02-05T00:18:01.866Z,17.66
2019-02-05T00:19:01.963Z,17.66
2019-02-05T00:20:01.647Z,17.67
2019-02-05T00:21:02.522Z,17.64
2019-02-05T00:22:02.086Z,17.63
2019-02-05T00:23:01.585Z,17.64
2019-02-05T00:24:01.773Z,17.64
2019-02-05T00:25:01.878Z,17.63
2019-02-05T00:26:06.912Z,17.61
2019-02-05T00:27:01.563Z,17.63
2019-02-05T00:28:02.205Z,17.63
2019-02-05T00:29:01.573Z,17.61
2019-02-05T00:30:02.038Z,17.6
2019-02-05T00:31:01.741Z,17.6
2019-02-05T00:32:02.232Z,17.61
2019-02-05T00:33:01.949Z,17.59
2019-02-05T00:34:02.232Z,17.59
2019-02-05T00:35:01.925Z,17.56
2019-02-05T00:36:03.313Z,17.59
2019-02-05T00:37:01.990Z,17.59
2019-02-05T00:38:01.573Z,17.56
2019-02-05T00:39:01.587Z,17.56
2019-02-05T00:40:02.101Z,17.56
2019-02-05T00:41:01.664Z,17.54
2019-02-05T00:42:01.915Z,17.54
2019-02-05T00:43:01.557Z,17.54
2019-02-05T00:44:03.678Z,17.54
2019-02-05T00:45:01.776Z,17.54
2019-02-05T00:46:01.772Z,17.54
2019-02-05T00:47:02.141Z,17.57
2019-02-05T00:48:01.945Z,17.53
2019-02-05T00:49:01.624Z,17.53
2019-02-05T00:50:02.012Z,17.52
2019-02-05T00:51:02.376Z,17.53
2019-02-05T00:52:03.938Z,17.53
2019-02-05T00:53:01.865Z,17.5
2019-02-05T00:54:02.404Z,17.53
2019-02-05T00:55:01.790Z,17.5
2019-02-05T00:56:01.597Z,17.52
2019-02-05T00:57:01.774Z,17.53
2019-02-05T00:58:01.621Z,17.49
2019-02-05T00:59:01.613Z,17.52
2019-02-05T01:00:01.992Z,17.5
2019-02-05T01:01:01.698Z,17.48
2019-02-05T01:02:01.837Z,17.48
2019-02-05T01:03:02.114Z,17.49
2019-02-05T01:04:02.100Z,17.48
2019-02-05T01:05:01.970Z,17.46
2019-02-05T01:06:02.733Z,17.49
2019-02-05T01:07:03.738Z,17.46
2019-02-05T01:08:01.779Z,17.43
2019-02-05T01:09:01.571Z,17.45
2019-02-05T01:10:01.998Z,17.46
2019-02-05T01:11:02.062Z,17.45
2019-02-05T01:12:01.649Z,17.46
2019-02-05T01:13:01.944Z,17.46
2019-02-05T01:14:02.107Z,17.43
2019-02-05T01:15:03.898Z,17.45
2019-02-05T01:16:01.643Z,17.45
2019-02-05T01:17:02.171Z,17.45
2019-02-05T01:18:01.889Z,17.42
2019-02-05T01:19:01.842Z,17.43
2019-02-05T01:20:01.755Z,17.42
2019-02-05T01:21:01.893Z,17.42
2019-02-05T01:22:01.998Z,17.42
2019-02-05T01:23:04.262Z,17.42
2019-02-05T01:24:02.017Z,17.42
2019-02-05T01:25:02.010Z,17.42
2019-02-05T01:26:01.545Z,17.43
2019-02-05T01:27:02.048Z,17.4
2019-02-05T01:28:01.620Z,17.4
2019-02-05T01:29:01.474Z,17.4
2019-02-05T01:30:02.293Z,17.4
2019-02-05T01:31:04.116Z,17.4
2019-02-05T01:32:01.816Z,17.4
2019-02-05T01:33:01.540Z,17.39
2019-02-05T01:34:02.036Z,17.39
2019-02-05T01:35:01.739Z,17.39
2019-02-05T01:36:02.246Z,17.39
2019-02-05T01:37:01.911Z,17.38
2019-02-05T01:38:01.586Z,17.38
2019-02-05T01:39:01.614Z,17.35
2019-02-05T01:40:01.560Z,17.38
2019-02-05T01:41:02.569Z,17.38
2019-02-05T01:42:03.231Z,17.36
2019-02-05T01:43:02.535Z,17.36
2019-02-05T01:44:01.934Z,17.33
2019-02-05T01:45:02.578Z,17.35
2019-02-05T01:46:02.335Z,17.33
2019-02-05T01:47:01.743Z,17.33
2019-02-05T01:48:01.908Z,17.29
2019-02-05T01:49:01.468Z,17.33
2019-02-05T01:50:01.629Z,17.35
2019-02-05T01:51:02.418Z,17.33
2019-02-05T01:52:01.779Z,17.31
2019-02-05T01:53:01.612Z,17.31
2019-02-05T01:54:03.771Z,17.31
2019-02-05T01:55:01.963Z,17.29
2019-02-05T01:56:01.587Z,17.31
2019-02-05T01:57:01.972Z,17.31
2019-02-05T01:58:02.066Z,17.33
2019-02-05T01:59:01.740Z,17.29
2019-02-05T02:00:01.864Z,17.29
2019-02-05T02:01:01.886Z,17.29
2019-02-05T02:02:04.029Z,17.29
2019-02-05T02:03:01.992Z,17.26
2019-02-05T02:04:01.494Z,17.28
2019-02-05T02:05:01.698Z,17.28
2019-02-05T02:06:02.033Z,17.25
2019-02-05T02:07:01.673Z,17.23
2019-02-05T02:08:01.859Z,17.25
2019-02-05T02:09:02.493Z,17.23
2019-02-05T02:10:01.600Z,17.26
2019-02-05T02:11:01.995Z,17.28
2019-02-05T02:12:01.874Z,17.25
2019-02-05T02:13:02.240Z,17.25
2019-02-05T02:14:01.770Z,17.28
2019-02-05T02:15:01.880Z,17.26
2019-02-05T02:16:01.961Z,17.23
2019-02-05T02:17:03.624Z,17.25
2019-02-05T02:18:02.216Z,17.22
2019-02-05T02:19:01.927Z,17.25
2019-02-05T02:20:02.169Z,17.21
2019-02-05T02:21:01.811Z,17.22
2019-02-05T02:22:01.512Z,17.23
2019-02-05T02:23:01.507Z,17.21
2019-02-05T02:24:01.587Z,17.22
2019-02-05T02:25:03.787Z,17.22
2019-02-05T02:26:01.735Z,17.22
2019-02-05T02:27:01.416Z,17.21
2019-02-05T02:28:01.571Z,17.23
2019-02-05T02:29:02.255Z,17.22
2019-02-05T02:30:01.769Z,17.21
2019-02-05T02:31:01.624Z,17.21
2019-02-05T02:32:02.297Z,17.21
2019-02-05T02:33:02.004Z,17.19
2019-02-05T02:34:01.857Z,17.18
2019-02-05T02:35:02.168Z,17.19
2019-02-05T02:36:01.606Z,17.19
2019-02-05T02:37:01.644Z,17.19
2019-02-05T02:38:01.652Z,17.18
2019-02-05T02:39:01.858Z,17.16
2019-02-05T02:40:03.789Z,17.18
2019-02-05T02:41:01.840Z,17.16
2019-02-05T02:42:01.966Z,17.16
2019-02-05T02:43:01.938Z,17.18
2019-02-05T02:44:01.472Z,17.18
2019-02-05T02:45:02.107Z,17.18
2019-02-05T02:46:01.936Z,17.18
2019-02-05T02:47:01.510Z,17.15
2019-02-05T02:48:03.745Z,17.18
2019-02-05T02:49:01.701Z,17.16
2019-02-05T02:50:01.578Z,17.15
2019-02-05T02:51:01.724Z,17.14
2019-02-05T02:52:02.123Z,17.15
2019-02-05T02:53:01.876Z,17.12
2019-02-05T02:54:01.984Z,17.14
2019-02-05T02:55:01.543Z,17.15
2019-02-05T02:56:04.007Z,17.14
2019-02-05T02:57:05.395Z,17.12
2019-02-05T02:58:01.973Z,17.14
2019-02-05T02:59:01.918Z,17.14
2019-02-05T03:00:01.717Z,17.12
2019-02-05T03:01:01.771Z,17.12
2019-02-05T03:02:01.517Z,17.11
2019-02-05T03:03:03.135Z,17.12
2019-02-05T03:04:02.115Z,17.12
2019-02-05T03:05:01.785Z,17.11
2019-02-05T03:06:02.075Z,17.11
2019-02-05T03:07:02.260Z,17.11
2019-02-05T03:08:01.964Z,17.11
2019-02-05T03:09:02.563Z,17.09
2019-02-05T03:10:01.977Z,17.08
2019-02-05T03:11:02.275Z,17.06
2019-02-05T03:12:01.575Z,17.08
2019-02-05T03:13:02.465Z,17.09
2019-02-05T03:14:01.584Z,17.08
2019-02-05T03:15:02.108Z,17.06
2019-02-05T03:16:01.799Z,17.08
2019-02-05T03:17:01.759Z,17.06
2019-02-05T03:18:04.061Z,17.08
2019-02-05T03:19:01.865Z,17.04
2019-02-05T03:20:01.711Z,17.05
2019-02-05T03:21:01.798Z,17.05
2019-02-05T03:22:01.635Z,17.05
2019-02-05T03:23:02.118Z,17.05
2019-02-05T03:24:02.156Z,17.06
2019-02-05T03:25:04.009Z,17.04
2019-02-05T03:26:02.160Z,17.05
2019-02-05T03:27:01.714Z,17.04
2019-02-05T03:28:01.434Z,17.05
2019-02-05T03:29:01.987Z,17.04
2019-02-05T03:30:02.020Z,17.05
2019-02-05T03:31:01.991Z,17.05
2019-02-05T03:32:03.760Z,17.02
2019-02-05T03:33:02.161Z,17.04
2019-02-05T03:34:01.813Z,17.05
2019-02-05T03:35:01.696Z,17.04
2019-02-05T03:36:01.792Z,17.02
2019-02-05T03:37:01.637Z,17.05
2019-02-05T03:38:01.592Z,17.04
2019-02-05T03:39:01.667Z,16.99
2019-02-05T03:40:01.453Z,16.99
2019-02-05T03:41:01.929Z,17.01
2019-02-05T03:42:02.186Z,16.99
2019-02-05T03:43:01.493Z,16.99
2019-02-05T03:44:01.910Z,16.99
2019-02-05T03:45:01.515Z,17.01
2019-02-05T03:46:01.566Z,16.99
2019-02-05T03:47:03.959Z,16.95
2019-02-05T03:48:02.304Z,16.99
2019-02-05T03:49:01.476Z,16.99
2019-02-05T03:50:01.843Z,16.98
2019-02-05T03:51:02.132Z,16.97
2019-02-05T03:52:01.486Z,16.98
2019-02-05T03:53:01.822Z,16.99
2019-02-05T03:54:03.914Z,16.97
2019-02-05T03:55:01.943Z,16.98
2019-02-05T03:56:01.651Z,16.95
2019-02-05T03:57:02.225Z,16.95
2019-02-05T03:58:01.566Z,16.97
2019-02-05T03:59:01.631Z,16.94
2019-02-05T04:00:01.503Z,16.97
2019-02-05T04:01:01.515Z,16.94
2019-02-05T04:02:04.681Z,16.95
2019-02-05T04:03:02.322Z,16.95
2019-02-05T04:04:01.651Z,16.95
2019-02-05T04:05:02.149Z,16.92
2019-02-05T04:06:02.143Z,16.94
2019-02-05T04:07:01.850Z,16.92
2019-02-05T04:08:01.724Z,16.92
2019-02-05T04:09:01.603Z,16.94
2019-02-05T04:10:01.952Z,16.94
2019-02-05T04:11:01.759Z,16.92
2019-02-05T04:12:02.163Z,16.94
2019-02-05T04:13:02.020Z,16.92
2019-02-05T04:14:02.120Z,16.92
2019-02-05T04:15:01.584Z,16.92
2019-02-05T04:16:01.982Z,16.94
2019-02-05T04:17:03.562Z,16.92
2019-02-05T04:18:01.878Z,16.91
2019-02-05T04:19:02.018Z,16.91
2019-02-05T04:20:01.931Z,16.91
2019-02-05T04:21:01.561Z,16.92
2019-02-05T04:22:01.962Z,16.92
2019-02-05T04:23:02.321Z,16.91
2019-02-05T04:24:01.715Z,16.91
2019-02-05T04:25:04.543Z,16.91
2019-02-05T04:26:01.861Z,16.9
2019-02-05T04:27:01.545Z,16.9
2019-02-05T04:28:01.609Z,16.91
2019-02-05T04:29:02.302Z,16.88
2019-02-05T04:30:01.843Z,16.88
2019-02-05T04:31:01.450Z,16.87
2019-02-05T04:32:02.118Z,16.88
2019-02-05T04:33:01.982Z,16.86
2019-02-05T04:34:02.555Z,16.88
2019-02-05T04:35:01.865Z,16.88
2019-02-05T04:36:02.115Z,16.87
2019-02-05T04:37:02.706Z,16.87
2019-02-05T04:38:01.915Z,16.87
2019-02-05T04:39:01.963Z,16.86
2019-02-05T04:40:03.419Z,16.87
2019-02-05T04:41:01.895Z,16.86
2019-02-05T04:42:02.108Z,16.84
2019-02-05T04:43:01.733Z,16.83
2019-02-05T04:44:01.606Z,16.86
2019-02-05T04:45:01.487Z,16.84
2019-02-05T04:46:01.581Z,16.87
2019-02-05T04:47:03.392Z,16.84
2019-02-05T04:48:03.784Z,16.86
2019-02-05T04:49:02.078Z,16.87
2019-02-05T04:50:01.534Z,16.91
2019-02-05T04:51:01.641Z,16.9
2019-02-05T04:52:01.978Z,16.87
2019-02-05T04:53:01.461Z,16.91
2019-02-05T04:54:01.739Z,16.92
2019-02-05T04:55:01.681Z,16.91
2019-02-05T04:56:01.918Z,16.92
2019-02-05T04:57:01.911Z,16.91
2019-02-05T04:58:02.175Z,16.92
2019-02-05T04:59:03.408Z,16.95
2019-02-05T05:00:01.743Z,16.95
2019-02-05T05:01:01.459Z,16.97
2019-02-05T05:02:01.628Z,16.95
2019-02-05T05:03:03.583Z,17.02
2019-02-05T05:04:01.659Z,17.04
2019-02-05T05:05:01.471Z,17.02
2019-02-05T05:06:02.176Z,17.05
2019-02-05T05:07:01.530Z,17.05
2019-02-05T05:08:01.540Z,17.09
2019-02-05T05:09:02.127Z,17.08
2019-02-05T05:10:01.615Z,17.09
2019-02-05T05:11:03.640Z,17.14
2019-02-05T05:12:01.855Z,17.15
2019-02-05T05:13:01.513Z,17.18
2019-02-05T05:14:02.042Z,17.18
2019-02-05T05:15:01.890Z,17.21
2019-02-05T05:16:01.594Z,17.23
2019-02-05T05:17:01.463Z,17.23
2019-02-05T05:18:03.587Z,17.28
2019-02-05T05:19:01.600Z,17.29
2019-02-05T05:20:01.671Z,17.28
2019-02-05T05:21:01.951Z,17.36
2019-02-05T05:22:01.574Z,17.36
2019-02-05T05:23:01.535Z,17.33
2019-02-05T05:24:01.699Z,17.39
2019-02-05T05:25:01.693Z,17.39
2019-02-05T05:26:01.903Z,17.42
2019-02-05T05:27:01.933Z,17.45
2019-02-05T05:28:10.835Z,17.45
2019-02-05T05:29:01.761Z,17.46
2019-02-05T05:30:01.672Z,17.49
2019-02-05T05:31:02.122Z,17.53
2019-02-05T05:32:01.809Z,17.5
2019-02-05T05:33:04.000Z,17.54
2019-02-05T05:34:01.433Z,17.54
2019-02-05T05:35:01.972Z,17.56
2019-02-05T05:36:01.734Z,17.56
2019-02-05T05:37:01.574Z,17.61
2019-02-05T05:38:01.964Z,17.6
2019-02-05T05:39:02.216Z,17.61
2019-02-05T05:40:01.762Z,17.64
2019-02-05T05:41:02.508Z,17.63
2019-02-05T05:42:01.944Z,17.68
2019-02-05T05:43:01.657Z,17.67
2019-02-05T05:44:01.675Z,17.68
2019-02-05T05:45:01.716Z,17.71
2019-02-05T05:46:02.149Z,17.71
2019-02-05T05:47:01.951Z,17.73
2019-02-05T05:48:03.801Z,17.76
2019-02-05T05:49:01.974Z,17.74
2019-02-05T05:50:01.608Z,17.78
2019-02-05T05:51:01.708Z,17.78
2019-02-05T05:52:01.905Z,17.78
2019-02-05T05:53:01.916Z,17.81
2019-02-05T05:54:01.453Z,17.8
2019-02-05T05:55:02.931Z,17.84
2019-02-05T05:56:01.988Z,17.84
2019-02-05T05:57:01.682Z,17.82
2019-02-05T05:58:03.378Z,17.87
2019-02-05T05:59:02.398Z,17.88
2019-02-05T06:00:03.213Z,17.88
2019-02-05T06:01:03.106Z,17.89
2019-02-05T06:02:01.886Z,17.88
2019-02-05T06:03:04.319Z,17.91
2019-02-05T06:04:03.515Z,17.93
2019-02-05T06:05:01.619Z,17.93
2019-02-05T06:06:01.549Z,17.93
2019-02-05T06:07:01.529Z,17.97
2019-02-05T06:08:01.712Z,17.97
2019-02-05T06:09:01.903Z,17.95
2019-02-05T06:10:06.869Z,17.97
2019-02-05T06:11:01.709Z,18
2019-02-05T06:12:01.929Z,18.01
2019-02-05T06:13:01.703Z,18.02
2019-02-05T06:14:02.083Z,18.02
2019-02-05T06:15:01.819Z,18.01
2019-02-05T06:16:01.895Z,18.04
2019-02-05T06:17:01.991Z,18.04
2019-02-05T06:18:06.476Z,18.04
2019-02-05T06:19:01.753Z,18.07
2019-02-05T06:20:02.005Z,18.08
2019-02-05T06:21:01.343Z,18.08
2019-02-05T06:22:01.454Z,18.09
2019-02-05T06:23:01.622Z,18.09
2019-02-05T06:24:01.730Z,18.11
2019-02-05T06:25:03.044Z,18.12
2019-02-05T06:26:01.748Z,18.15
2019-02-05T06:27:02.052Z,18.21
2019-02-05T06:28:01.448Z,18.18
2019-02-05T06:29:01.692Z,18.21
2019-02-05T06:30:02.240Z,18.22
2019-02-05T06:31:01.573Z,18.26
2019-02-05T06:32:01.481Z,18.29
2019-02-05T06:33:04.124Z,18.3
2019-02-05T06:34:01.401Z,18.33
2019-02-05T06:35:01.497Z,18.32
2019-02-05T06:36:01.334Z,18.33
2019-02-05T06:37:01.575Z,18.35
2019-02-05T06:38:01.803Z,18.39
2019-02-05T06:39:01.698Z,18.37
2019-02-05T06:40:03.254Z,18.4
2019-02-05T06:41:01.627Z,18.41
2019-02-05T06:42:02.922Z,18.44
2019-02-05T06:43:01.482Z,18.43
2019-02-05T06:44:01.642Z,18.46
2019-02-05T06:45:01.394Z,18.44
2019-02-05T06:46:01.563Z,18.47
2019-02-05T06:47:01.395Z,18.49
2019-02-05T06:48:01.529Z,18.49
2019-02-05T06:49:01.806Z,18.51
2019-02-05T06:50:01.354Z,18.5
2019-02-05T06:51:01.628Z,18.53
2019-02-05T06:52:01.485Z,18.54
2019-02-05T06:53:01.358Z,18.54
2019-02-05T06:54:01.589Z,18.54
2019-02-05T06:55:03.669Z,18.56
2019-02-05T06:56:01.852Z,18.57
2019-02-05T06:57:01.492Z,18.56
2019-02-05T06:58:01.549Z,18.57
2019-02-05T06:59:01.573Z,18.6
2019-02-05T07:00:01.479Z,18.58
2019-02-05T07:01:01.769Z,18.6
2019-02-05T07:02:01.466Z,18.62
2019-02-05T07:03:01.597Z,18.63
2019-02-05T07:04:02.119Z,18.63
2019-02-05T07:05:01.999Z,18.63
2019-02-05T07:06:01.975Z,18.64
2019-02-05T07:07:02.161Z,18.66
2019-02-05T07:08:01.737Z,18.64
2019-02-05T07:09:01.468Z,18.67
2019-02-05T07:10:03.673Z,18.66
2019-02-05T07:11:01.693Z,18.66
2019-02-05T07:12:01.533Z,18.67
2019-02-05T07:13:03.549Z,18.67
2019-02-05T07:14:01.400Z,18.67
2019-02-05T07:15:02.120Z,18.66
2019-02-05T07:16:02.154Z,18.66
2019-02-05T07:17:02.636Z,18.68
2019-02-05T07:18:01.693Z,18.64
2019-02-05T07:19:01.666Z,18.64
2019-02-05T07:20:01.518Z,18.63
2019-02-05T07:21:01.439Z,18.63
2019-02-05T07:22:01.951Z,18.63
2019-02-05T07:23:02.110Z,18.62
2019-02-05T07:24:01.877Z,18.63
2019-02-05T07:25:05.009Z,18.62
2019-02-05T07:26:01.450Z,18.62
2019-02-05T07:27:01.434Z,18.58
2019-02-05T07:28:01.613Z,18.58
2019-02-05T07:29:02.532Z,18.58
2019-02-05T07:30:02.020Z,18.57
2019-02-05T07:31:01.808Z,18.57
2019-02-05T07:32:03.422Z,18.57
2019-02-05T07:33:02.174Z,18.56
2019-02-05T07:34:01.851Z,18.56
2019-02-05T07:35:01.760Z,18.56
2019-02-05T07:36:01.482Z,18.53
2019-02-05T07:37:01.660Z,18.56
2019-02-05T07:38:02.034Z,18.56
2019-02-05T07:39:03.276Z,18.54
2019-02-05T07:40:02.263Z,18.54
2019-02-05T07:41:02.515Z,18.53
2019-02-05T07:42:01.684Z,18.54
2019-02-05T07:43:01.846Z,18.54
2019-02-05T07:44:01.860Z,18.56
2019-02-05T07:45:01.840Z,18.56
2019-02-05T07:46:03.218Z,18.54
2019-02-05T07:47:01.536Z,18.56
2019-02-05T07:48:01.498Z,18.56
2019-02-05T07:49:01.428Z,18.54
2019-02-05T07:50:01.446Z,18.53
2019-02-05T07:51:01.414Z,18.54
2019-02-05T07:52:01.566Z,18.54
2019-02-05T07:53:01.529Z,18.54
2019-02-05T07:54:01.722Z,18.54
2019-02-05T07:55:01.385Z,18.56
2019-02-05T07:56:01.652Z,18.56
2019-02-05T07:57:01.915Z,18.56
2019-02-05T07:58:01.364Z,18.56
2019-02-05T07:59:10.917Z,18.56
2019-02-05T08:00:01.718Z,18.56
2019-02-05T08:01:04.141Z,18.58
2019-02-05T08:02:03.719Z,18.56
2019-02-05T08:03:01.664Z,18.57
2019-02-05T08:04:01.687Z,18.6
2019-02-05T08:05:02.277Z,18.58
2019-02-05T08:06:01.496Z,18.6
2019-02-05T08:07:01.875Z,18.62
2019-02-05T08:08:03.578Z,18.6
2019-02-05T08:09:01.471Z,18.63
2019-02-05T08:10:01.682Z,18.63
2019-02-05T08:11:01.352Z,18.63
2019-02-05T08:12:01.497Z,18.64
2019-02-05T08:13:01.582Z,18.66
2019-02-05T08:14:01.402Z,18.64
2019-02-05T08:15:03.833Z,18.67
2019-02-05T08:16:01.779Z,18.67
2019-02-05T08:17:02.076Z,18.68
2019-02-05T08:18:01.322Z,18.67
2019-02-05T08:19:01.982Z,18.67
2019-02-05T08:20:01.899Z,18.71
2019-02-05T08:21:01.672Z,18.7
2019-02-05T08:22:04.089Z,18.7
2019-02-05T08:23:01.917Z,18.7
2019-02-05T08:24:01.467Z,18.7
2019-02-05T08:25:01.622Z,18.71
2019-02-05T08:26:01.742Z,18.71
2019-02-05T08:27:01.622Z,18.74
2019-02-05T08:28:01.643Z,18.74
2019-02-05T08:29:03.626Z,18.74
2019-02-05T08:30:01.660Z,18.74
2019-02-05T08:31:01.531Z,18.77
2019-02-05T08:32:01.606Z,18.77
2019-02-05T08:33:01.789Z,18.75
2019-02-05T08:34:03.766Z,18.77
2019-02-05T08:35:01.566Z,18.77
2019-02-05T08:36:01.576Z,18.75
2019-02-05T08:37:01.466Z,18.78
2019-02-05T08:38:01.787Z,18.78
2019-02-05T08:39:01.480Z,18.8
2019-02-05T08:40:01.701Z,18.84
2019-02-05T08:41:02.206Z,18.83
2019-02-05T08:42:01.828Z,18.84
2019-02-05T08:43:01.539Z,18.83
2019-02-05T08:44:03.635Z,18.85
2019-02-05T08:45:01.366Z,18.83
2019-02-05T08:46:01.777Z,18.83
2019-02-05T08:47:01.964Z,18.84
2019-02-05T08:48:01.786Z,18.85
2019-02-05T08:49:01.429Z,18.87
2019-02-05T08:50:01.600Z,18.88
2019-02-05T08:51:03.476Z,18.9
2019-02-05T08:52:01.870Z,18.91
2019-02-05T08:53:02.481Z,18.91
2019-02-05T08:54:01.814Z,18.92
2019-02-05T08:55:01.607Z,18.92
2019-02-05T08:56:01.645Z,18.95
2019-02-05T08:57:01.612Z,18.98
2019-02-05T08:58:03.017Z,18.98
2019-02-05T08:59:02.445Z,18.99
2019-02-05T09:00:01.890Z,18.99
2019-02-05T09:01:01.674Z,19.02
2019-02-05T09:02:01.582Z,19.02
2019-02-05T09:03:01.502Z,19.03
2019-02-05T09:04:01.711Z,19.02
2019-02-05T09:05:01.995Z,19.03
2019-02-05T09:06:02.021Z,19.02
2019-02-05T09:07:01.463Z,19.01
2019-02-05T09:08:03.178Z,19.02
2019-02-05T09:09:01.466Z,19.02
2019-02-05T09:10:01.542Z,19.02
2019-02-05T09:11:01.488Z,19.02
2019-02-05T09:12:01.520Z,19.03
2019-02-05T09:13:04.047Z,19.02
2019-02-05T09:14:14.548Z,19.01
2019-02-05T09:15:01.570Z,19.01
2019-02-05T09:16:01.625Z,19.01
2019-02-05T09:17:01.905Z,19.02
2019-02-05T09:18:01.599Z,19.02
2019-02-05T09:19:01.715Z,19.02
2019-02-05T09:20:02.413Z,19.02
2019-02-05T09:21:01.582Z,19.02
2019-02-05T09:22:01.568Z,18.99
2019-02-05T09:23:01.566Z,18.99
2019-02-05T09:24:01.726Z,19.03
2019-02-05T09:25:01.543Z,19.02
2019-02-05T09:26:01.895Z,18.99
2019-02-05T09:27:01.461Z,19.01
2019-02-05T09:28:04.151Z,19.02
2019-02-05T09:29:01.447Z,19.01
2019-02-05T09:30:01.576Z,18.99
2019-02-05T09:31:01.745Z,18.99
2019-02-05T09:32:01.966Z,18.99
2019-02-05T09:33:01.324Z,19.01
2019-02-05T09:34:01.537Z,18.99
2019-02-05T09:35:03.282Z,19.01
2019-02-05T09:36:01.601Z,19.02
2019-02-05T09:37:01.439Z,19.01
2019-02-05T09:38:01.984Z,18.99
2019-02-05T09:39:01.311Z,18.99
2019-02-05T09:40:01.460Z,18.97
2019-02-05T09:41:01.725Z,18.98
2019-02-05T09:42:02.034Z,18.99
2019-02-05T09:43:04.977Z,18.97
2019-02-05T09:44:01.471Z,18.97
2019-02-05T09:45:01.608Z,18.94
2019-02-05T09:46:01.416Z,18.94
2019-02-05T09:47:01.511Z,18.92
2019-02-05T09:48:01.458Z,18.92
2019-02-05T09:49:01.458Z,18.92
2019-02-05T09:50:03.798Z,18.95
2019-02-05T09:51:01.743Z,18.92
2019-02-05T09:52:01.931Z,18.92
2019-02-05T09:53:01.598Z,18.92
2019-02-05T09:54:01.436Z,18.9
2019-02-05T09:55:01.408Z,18.9
2019-02-05T09:56:01.546Z,18.91
2019-02-05T09:57:03.646Z,18.9
2019-02-05T09:58:02.071Z,18.9
2019-02-05T09:59:01.498Z,18.88
2019-02-05T10:00:01.476Z,18.9
2019-02-05T10:01:01.674Z,18.91
2019-02-05T10:02:01.480Z,18.91
2019-02-05T10:03:01.442Z,18.87
2019-02-05T10:04:02.482Z,18.87
2019-02-05T10:05:01.639Z,18.9
2019-02-05T10:06:01.622Z,18.87
2019-02-05T10:07:01.933Z,18.9
2019-02-05T10:08:01.982Z,18.87
2019-02-05T10:09:01.424Z,18.85
2019-02-05T10:10:01.997Z,18.85
2019-02-05T10:11:01.737Z,18.87
2019-02-05T10:12:03.341Z,18.88
2019-02-05T10:13:01.744Z,18.88
2019-02-05T10:14:01.574Z,18.87
2019-02-05T10:15:01.708Z,18.87
2019-02-05T10:16:01.860Z,18.85
2019-02-05T10:17:01.918Z,18.87
2019-02-05T10:18:01.600Z,18.88
2019-02-05T10:19:03.289Z,18.87
2019-02-05T10:20:01.975Z,18.87
2019-02-05T10:21:01.480Z,18.87
2019-02-05T10:22:01.458Z,18.87
2019-02-05T10:23:01.529Z,18.87
2019-02-05T10:24:01.485Z,18.85
2019-02-05T10:25:01.956Z,18.87
2019-02-05T10:26:01.611Z,18.88
2019-02-05T10:27:02.027Z,18.88
2019-02-05T10:28:01.589Z,18.85
2019-02-05T10:29:01.687Z,18.88
2019-02-05T10:30:01.508Z,18.87
2019-02-05T10:31:01.535Z,18.87
2019-02-05T10:32:01.321Z,18.87
2019-02-05T10:33:01.790Z,18.87
2019-02-05T10:34:03.196Z,18.87
2019-02-05T10:35:01.805Z,18.87
2019-02-05T10:36:01.950Z,18.85
2019-02-05T10:37:01.765Z,18.84
2019-02-05T10:38:01.671Z,18.87
2019-02-05T10:39:01.535Z,18.85
2019-02-05T10:40:01.617Z,18.84
2019-02-05T10:41:02.243Z,18.87
2019-02-05T10:42:01.685Z,18.85
2019-02-05T10:43:02.102Z,18.84
2019-02-05T10:44:03.221Z,18.85
2019-02-05T10:45:01.666Z,18.85
2019-02-05T10:46:02.031Z,18.84
2019-02-05T10:47:01.627Z,18.85
2019-02-05T10:48:01.563Z,18.85
2019-02-05T10:49:05.554Z,18.88
2019-02-05T10:50:01.591Z,18.85
2019-02-05T10:51:01.522Z,18.88
2019-02-05T10:52:02.031Z,18.85
2019-02-05T10:53:01.548Z,18.87
2019-02-05T10:54:01.412Z,18.85
2019-02-05T10:55:03.433Z,18.85
2019-02-05T10:56:03.764Z,18.87
2019-02-05T10:57:01.879Z,18.84
2019-02-05T10:58:01.591Z,18.85
2019-02-05T10:59:01.869Z,18.85
2019-02-05T11:00:09.830Z,18.85
2019-02-05T11:01:01.467Z,18.84
2019-02-05T11:02:02.626Z,18.87
2019-02-05T11:03:01.803Z,18.85
2019-02-05T11:04:01.897Z,18.84
2019-02-05T11:05:01.425Z,18.84
2019-02-05T11:06:01.686Z,18.85
2019-02-05T11:07:01.665Z,18.84
2019-02-05T11:08:01.848Z,18.83
2019-02-05T11:09:01.384Z,18.84
2019-02-05T11:10:01.668Z,18.84
2019-02-05T11:11:05.200Z,18.84
2019-02-05T11:12:02.430Z,18.84
2019-02-05T11:13:01.939Z,18.84
2019-02-05T11:14:01.513Z,18.85
2019-02-05T11:15:01.933Z,18.85
2019-02-05T11:16:02.112Z,18.85
2019-02-05T11:17:01.892Z,18.83
2019-02-05T11:18:03.847Z,18.84
2019-02-05T11:19:01.468Z,18.84
2019-02-05T11:20:01.546Z,18.84
2019-02-05T11:21:05.067Z,18.87
2019-02-05T11:22:01.856Z,18.84
2019-02-05T11:23:01.558Z,18.87
2019-02-05T11:24:01.224Z,18.83
2019-02-05T11:25:01.660Z,18.87
2019-02-05T11:26:01.503Z,18.83
2019-02-05T11:27:01.220Z,18.85
2019-02-05T11:28:01.816Z,18.85
2019-02-05T11:29:01.816Z,18.85
2019-02-05T11:30:01.544Z,18.9
2019-02-05T11:31:01.931Z,18.91
2019-02-05T11:32:01.321Z,18.91
2019-02-05T11:33:04.041Z,18.94
2019-02-05T11:34:01.538Z,18.98
2019-02-05T11:35:02.193Z,18.98
2019-02-05T11:36:01.653Z,18.98
2019-02-05T11:37:01.438Z,19.01
2019-02-05T11:38:01.594Z,19.03
2019-02-05T11:39:01.278Z,19.03
2019-02-05T11:40:03.462Z,19.05
2019-02-05T11:41:01.699Z,19.06
2019-02-05T11:42:01.330Z,19.06
2019-02-05T11:43:01.639Z,19.08
2019-02-05T11:44:01.858Z,19.12
2019-02-05T11:45:02.536Z,19.08
2019-02-05T11:46:01.708Z,19.12
2019-02-05T11:47:04.492Z,19.12
2019-02-05T11:48:02.188Z,19.15
2019-02-05T11:49:01.649Z,19.15
2019-02-05T11:50:02.489Z,19.19
2019-02-05T11:51:01.312Z,19.18
2019-02-05T11:52:02.028Z,19.19
2019-02-05T11:53:01.134Z,19.2
2019-02-05T11:54:01.470Z,19.2
2019-02-05T11:55:04.290Z,19.23
2019-02-05T11:56:02.182Z,19.22
2019-02-05T11:57:01.561Z,19.26
2019-02-05T11:58:01.987Z,19.25
2019-02-05T11:59:01.673Z,19.25
2019-02-05T12:00:01.726Z,19.23
2019-02-05T12:01:02.257Z,19.26
2019-02-05T12:02:02.807Z,19.25
2019-02-05T12:03:01.955Z,19.26
2019-02-05T12:04:02.042Z,19.26
2019-02-05T12:05:02.576Z,19.27
2019-02-05T12:06:01.798Z,19.27
2019-02-05T12:07:02.068Z,19.27
2019-02-05T12:08:03.406Z,19.29
2019-02-05T12:09:01.344Z,19.27
2019-02-05T12:10:03.986Z,19.29
2019-02-05T12:11:02.613Z,19.29
2019-02-05T12:12:01.594Z,19.3
2019-02-05T12:13:01.493Z,19.32
2019-02-05T12:14:02.181Z,19.32
2019-02-05T12:15:01.270Z,19.35
2019-02-05T12:16:02.262Z,19.32
2019-02-05T12:17:03.524Z,19.35
2019-02-05T12:18:01.943Z,19.36
2019-02-05T12:19:03.368Z,19.36
2019-02-05T12:20:01.353Z,19.36
2019-02-05T12:21:01.538Z,19.37
2019-02-05T12:22:01.467Z,19.37
2019-02-05T12:23:01.655Z,19.39
2019-02-05T12:24:03.473Z,19.4
2019-02-05T12:25:01.510Z,19.42
2019-02-05T12:26:02.073Z,19.42
2019-02-05T12:27:01.669Z,19.45
2019-02-05T12:28:01.416Z,19.45
2019-02-05T12:29:01.230Z,19.47
2019-02-05T12:30:02.007Z,19.46
2019-02-05T12:31:02.488Z,19.47
2019-02-05T12:32:02.308Z,19.47
2019-02-05T12:33:02.525Z,19.45
2019-02-05T12:34:01.730Z,19.5
2019-02-05T12:35:01.849Z,19.53
2019-02-05T12:36:01.526Z,19.52
2019-02-05T12:37:01.481Z,19.52
2019-02-05T12:38:01.934Z,19.5
2019-02-05T12:39:03.992Z,19.52
2019-02-05T12:40:01.930Z,19.54
2019-02-05T12:41:01.473Z,19.53
2019-02-05T12:42:03.110Z,19.54
2019-02-05T12:43:01.477Z,19.54
2019-02-05T12:44:02.019Z,19.54
2019-02-05T12:45:01.328Z,19.56
2019-02-05T12:46:02.402Z,19.54
2019-02-05T12:47:01.542Z,19.56
2019-02-05T12:48:01.630Z,19.56
2019-02-05T12:49:01.844Z,19.56
2019-02-05T12:50:01.767Z,19.54
2019-02-05T12:51:01.812Z,19.57
2019-02-05T12:52:01.454Z,19.58
2019-02-05T12:53:01.312Z,19.54
2019-02-05T12:54:03.585Z,19.54